Time;durP1;ratioP1;P1;durP2;ratioP2;P2;SDS_P1;SDS_P2;PMS_P1;PMS_P2;Temp;Humidity;BMP_temperature;BMP_pressure;BME280_temperature;BME280_humidity;BME280_pressure;Samples;Min_cycle;Max_cycle;Signal;HPM_P1;HPM_P2
2022/09/30 00:01:49;;;;;;;9.07;1.80;;;10.10;99.90;;;;;;6096591;29;20273;-66
2022/09/30 00:04:54;;;;;;;2.42;1.75;;;10.20;99.90;;;;;;6096183;29;20308;-66
2022/09/30 00:07:59;;;;;;;5.47;1.92;;;10.20;99.90;;;;;;6096061;29;20292;-66
2022/09/30 00:11:09;;;;;;;4.10;1.73;;;10.20;99.90;;;;;;6108956;29;20268;-67
2022/09/30 00:14:17;;;;;;;3.45;1.80;;;10.20;99.90;;;;;;6119373;29;20303;-67
2022/09/30 00:17:22;;;;;;;5.07;1.73;;;10.20;99.90;;;;;;6118096;29;20292;-67
2022/09/30 00:20:27;;;;;;;3.97;1.80;;;10.20;99.90;;;;;;6119974;29;20551;-67
2022/09/30 00:23:33;;;;;;;1.52;1.52;;;10.20;99.90;;;;;;6119329;29;20296;-67
2022/09/30 00:26:40;;;;;;;1.30;1.30;;;10.00;99.90;;;;;;6119331;29;20276;-67
2022/09/30 00:29:45;;;;;;;1.30;1.30;;;10.00;99.90;;;;;;6119502;29;20299;-67
2022/09/30 00:32:50;;;;;;;1.45;1.45;;;9.90;99.90;;;;;;6118879;28;20307;-68
2022/09/30 00:35:55;;;;;;;3.85;1.58;;;9.90;99.90;;;;;;6119879;29;20295;-67
2022/09/30 00:38:59;;;;;;;2.42;1.55;;;9.90;99.90;;;;;;6119160;29;20365;-67
2022/09/30 00:42:13;;;;;;;1.73;1.50;;;10.00;99.90;;;;;;6118894;28;20277;-67
2022/09/30 00:45:18;;;;;;;1.70;1.60;;;10.00;99.90;;;;;;6119242;29;20280;-67
2022/09/30 00:48:29;;;;;;;1.70;1.70;;;10.00;99.90;;;;;;6118563;29;20295;-67
2022/09/30 00:51:38;;;;;;;1.65;1.63;;;10.00;99.90;;;;;;6118977;29;20271;-67
2022/09/30 00:54:43;;;;;;;2.78;1.58;;;10.10;99.90;;;;;;6118562;29;20347;-67
2022/09/30 00:57:50;;;;;;;9.15;1.77;;;10.10;99.90;;;;;;6118175;29;20291;-68
2022/09/30 01:00:56;;;;;;;1.70;1.60;;;10.10;99.90;;;;;;6118763;29;20276;-67
2022/09/30 01:04:06;;;;;;;1.95;1.67;;;10.00;99.90;;;;;;6118258;29;20296;-68
2022/09/30 01:07:12;;;;;;;1.55;1.55;;;10.00;99.90;;;;;;6118573;29;20301;-67
2022/09/30 01:10:18;;;;;;;4.13;1.55;;;9.90;99.90;;;;;;6111874;29;20453;-67
2022/09/30 01:13:26;;;;;;;2.05;1.42;;;10.00;99.90;;;;;;6094634;29;20296;-66
2022/09/30 01:16:47;;;;;;;1.30;1.30;;;10.00;99.90;;;;;;6095169;29;20272;-67
2022/09/30 01:20:34;;;;;;;1.70;1.42;;;10.00;99.90;;;;;;6094677;29;20296;-67
2022/09/30 01:23:56;;;;;;;1.30;1.30;;;10.00;99.90;;;;;;6092671;29;20619;-67
2022/09/30 01:27:33;;;;;;;4.75;1.58;;;9.90;99.90;;;;;;6094584;29;20268;-67
2022/09/30 01:30:57;;;;;;;1.30;1.30;;;9.80;99.90;;;;;;6094094;29;20281;-67
2022/09/30 01:34:10;;;;;;;2.78;1.50;;;10.00;99.90;;;;;;6094373;29;20312;-67
2022/09/30 01:37:22;;;;;;;1.75;1.50;;;10.00;99.90;;;;;;6094314;29;20272;-67
2022/09/30 01:40:34;;;;;;;2.17;1.50;;;9.80;99.90;;;;;;6094685;29;20272;-67
2022/09/30 01:43:44;;;;;;;1.83;1.60;;;9.90;99.90;;;;;;6093940;29;20313;-67
2022/09/30 01:46:55;;;;;;;1.50;1.50;;;10.00;99.90;;;;;;6094159;29;20525;-67
2022/09/30 01:50:04;;;;;;;1.42;1.42;;;9.90;99.90;;;;;;6093745;29;20584;-67
2022/09/30 01:53:19;;;;;;;1.50;1.50;;;10.00;99.90;;;;;;6094025;29;20308;-67
2022/09/30 01:56:30;;;;;;;2.90;1.48;;;10.00;99.90;;;;;;6094583;29;20273;-66
2022/09/30 01:59:39;;;;;;;1.40;1.40;;;10.00;99.90;;;;;;6093961;29;20620;-67
2022/09/30 02:02:50;;;;;;;3.80;1.48;;;10.00;99.90;;;;;;6093664;29;20304;-66
2022/09/30 02:05:57;;;;;;;1.65;1.55;;;10.00;99.90;;;;;;6093728;29;20313;-66
2022/09/30 02:09:06;;;;;;;1.60;1.42;;;10.00;99.90;;;;;;6093642;29;20300;-67
2022/09/30 02:12:16;;;;;;;2.33;1.35;;;10.00;99.90;;;;;;6114117;28;20264;-67
2022/09/30 02:15:24;;;;;;;1.67;1.67;;;10.00;99.90;;;;;;6117084;29;20295;-67
2022/09/30 02:18:35;;;;;;;4.40;1.48;;;10.00;99.90;;;;;;6116736;29;20630;-67
2022/09/30 02:21:42;;;;;;;7.03;1.83;;;9.90;99.90;;;;;;6117137;29;20591;-67
2022/09/30 02:24:53;;;;;;;1.52;1.42;;;10.00;99.90;;;;;;6116898;29;20303;-67
2022/09/30 02:28:02;;;;;;;3.88;1.45;;;9.80;99.90;;;;;;6116601;29;20291;-67
2022/09/30 02:31:09;;;;;;;1.58;1.50;;;9.80;99.90;;;;;;6116871;29;20276;-67
2022/09/30 02:34:20;;;;;;;1.30;1.30;;;9.80;99.90;;;;;;6116770;29;20312;-67
2022/09/30 02:37:28;;;;;;;1.75;1.58;;;9.80;99.90;;;;;;6116345;29;20291;-67
2022/09/30 02:40:38;;;;;;;1.27;1.27;;;9.80;99.90;;;;;;6117096;29;20291;-66
2022/09/30 02:43:43;;;;;;;4.30;1.63;;;9.70;99.90;;;;;;6116338;29;20300;-66
2022/09/30 02:46:57;;;;;;;1.38;1.38;;;9.70;99.90;;;;;;6116977;29;20275;-66
2022/09/30 02:50:08;;;;;;;1.42;1.40;;;9.70;99.90;;;;;;6116266;29;20284;-67
2022/09/30 02:53:23;;;;;;;1.50;1.50;;;9.80;99.90;;;;;;6116439;28;20304;-66
2022/09/30 02:56:37;;;;;;;1.70;1.63;;;9.80;99.90;;;;;;6116829;29;20510;-66
2022/09/30 02:59:42;;;;;;;5.63;1.38;;;9.80;99.90;;;;;;6116296;29;20582;-67
2022/09/30 03:02:47;;;;;;;2.50;1.40;;;9.90;99.90;;;;;;6109055;29;20477;-67
2022/09/30 03:05:53;;;;;;;1.33;1.33;;;9.90;99.90;;;;;;6110056;29;20608;-67
2022/09/30 03:08:58;;;;;;;2.08;1.42;;;9.90;99.90;;;;;;6092292;29;20310;-67
2022/09/30 03:12:14;;;;;;;1.50;1.50;;;10.00;99.90;;;;;;6110969;29;20273;-68
2022/09/30 03:15:35;;;;;;;1.50;1.50;;;10.00;99.90;;;;;;6116888;29;20307;-67
2022/09/30 03:18:57;;;;;;;1.50;1.50;;;10.00;99.90;;;;;;6112874;29;20289;-67
2022/09/30 03:22:32;;;;;;;2.28;1.80;;;10.00;99.90;;;;;;6092463;29;20272;-67
2022/09/30 03:25:44;;;;;;;1.60;1.60;;;9.90;99.90;;;;;;6096279;29;20351;-66
2022/09/30 03:29:00;;;;;;;4.63;1.67;;;9.90;99.90;;;;;;6097289;29;20507;-67
2022/09/30 03:32:22;;;;;;;1.50;1.50;;;9.90;99.90;;;;;;6097253;29;20272;-67
2022/09/30 03:35:33;;;;;;;2.10;1.50;;;10.00;99.90;;;;;;6098062;29;20611;-66
2022/09/30 03:38:49;;;;;;;1.83;1.60;;;9.90;99.90;;;;;;6120261;29;20312;-66
2022/09/30 03:42:00;;;;;;;1.60;1.60;;;9.90;99.90;;;;;;6119922;29;20271;-67
2022/09/30 03:45:08;;;;;;;2.13;1.70;;;9.90;99.90;;;;;;6120678;29;20272;-66
2022/09/30 03:48:15;;;;;;;1.75;1.65;;;10.00;99.90;;;;;;6120284;29;20296;-66
2022/09/30 03:51:21;;;;;;;3.78;2.03;;;9.90;99.90;;;;;;6120606;29;20271;-67
2022/09/30 03:54:28;;;;;;;3.10;1.42;;;9.90;99.90;;;;;;6119579;29;20303;-66
2022/09/30 03:57:32;;;;;;;15.52;2.67;;;9.90;99.90;;;;;;6120153;29;20362;-67
2022/09/30 04:00:38;;;;;;;2.05;1.77;;;9.90;99.90;;;;;;6120581;29;20280;-66
2022/09/30 04:03:43;;;;;;;1.80;1.70;;;9.90;99.90;;;;;;6119453;29;20296;-67
2022/09/30 04:06:48;;;;;;;2.60;1.60;;;9.90;99.90;;;;;;6119912;29;20305;-67
2022/09/30 04:09:55;;;;;;;1.83;1.80;;;9.90;99.90;;;;;;6115681;29;20280;-67
2022/09/30 04:12:59;;;;;;;1.55;1.55;;;9.80;99.90;;;;;;6096283;29;20624;-67
2022/09/30 04:16:05;;;;;;;1.48;1.48;;;9.90;99.90;;;;;;6096552;29;20292;-67
2022/09/30 04:19:11;;;;;;;1.73;1.60;;;9.90;99.90;;;;;;6095974;29;20604;-66
2022/09/30 04:22:15;;;;;;;1.83;1.60;;;9.90;99.90;;;;;;6096032;29;20325;-67
2022/09/30 04:25:21;;;;;;;1.73;1.63;;;9.80;99.90;;;;;;6095915;29;20296;-67
2022/09/30 04:28:47;;;;;;;1.58;1.58;;;9.80;99.90;;;;;;6095785;29;20595;-67
2022/09/30 04:31:51;;;;;;;1.50;1.50;;;9.80;99.90;;;;;;6095704;29;20277;-66
2022/09/30 04:34:56;;;;;;;1.90;1.77;;;9.90;99.90;;;;;;6095359;29;20277;-67
2022/09/30 04:38:05;;;;;;;1.33;1.33;;;9.80;99.90;;;;;;6095401;29;20471;-67
2022/09/30 04:41:16;;;;;;;1.60;1.50;;;9.80;99.90;;;;;;6095751;29;20276;-67
2022/09/30 04:44:22;;;;;;;1.70;1.70;;;9.80;99.90;;;;;;6095432;29;20293;-67
2022/09/30 04:47:27;;;;;;;1.50;1.50;;;9.80;99.90;;;;;;6095033;29;20603;-67
2022/09/30 04:50:31;;;;;;;1.40;1.40;;;9.90;99.90;;;;;;6095492;29;20277;-68
2022/09/30 04:53:38;;;;;;;1.75;1.63;;;9.80;99.90;;;;;;6095247;29;20304;-66
2022/09/30 04:56:44;;;;;;;2.20;1.55;;;9.70;99.90;;;;;;6095524;29;20609;-68
2022/09/30 04:59:50;;;;;;;1.85;1.83;;;9.80;99.90;;;;;;6095150;29;20296;-67
2022/09/30 05:02:56;;;;;;;1.63;1.63;;;9.80;99.90;;;;;;6094600;29;20583;-67
2022/09/30 05:06:02;;;;;;;1.88;1.77;;;9.80;99.90;;;;;;6095444;29;20313;-67
2022/09/30 05:09:07;;;;;;;1.90;1.90;;;9.80;99.90;;;;;;6094833;29;20296;-67
2022/09/30 05:12:14;;;;;;;1.92;1.92;;;9.80;99.90;;;;;;6115730;29;20579;-67
2022/09/30 05:15:19;;;;;;;1.70;1.70;;;9.80;99.90;;;;;;6118645;29;20277;-66
2022/09/30 05:18:24;;;;;;;1.90;1.90;;;9.80;99.90;;;;;;6117842;29;20295;-66
2022/09/30 05:21:29;;;;;;;2.00;2.00;;;9.80;99.90;;;;;;6118521;29;20276;-66
2022/09/30 05:24:34;;;;;;;3.72;1.90;;;9.80;99.90;;;;;;6117715;29;20300;-67
2022/09/30 05:27:40;;;;;;;2.35;2.13;;;9.80;99.90;;;;;;6117997;29;20308;-67
2022/09/30 05:30:46;;;;;;;2.10;2.00;;;9.80;99.90;;;;;;6118303;29;20272;-67
2022/09/30 05:33:50;;;;;;;1.60;1.60;;;9.80;99.90;;;;;;6117769;29;20295;-67
2022/09/30 05:37:01;;;;;;;4.13;1.92;;;9.70;99.90;;;;;;6117743;29;20292;-68
2022/09/30 05:40:08;;;;;;;2.00;1.90;;;9.80;99.90;;;;;;6118044;29;20268;-67
2022/09/30 05:43:16;;;;;;;2.28;1.90;;;9.80;99.90;;;;;;6117224;29;20594;-67
2022/09/30 05:46:21;;;;;;;1.70;1.70;;;9.90;99.90;;;;;;6118173;29;20283;-67
2022/09/30 05:49:27;;;;;;;2.40;2.20;;;9.90;99.90;;;;;;6117497;29;20481;-67
2022/09/30 05:52:31;;;;;;;3.22;2.17;;;9.80;99.90;;;;;;6117379;28;20319;-67
2022/09/30 05:55:37;;;;;;;2.17;2.00;;;9.90;99.90;;;;;;6117162;29;20273;-67
2022/09/30 05:58:44;;;;;;;2.17;1.98;;;10.00;99.90;;;;;;6117380;28;20299;-67
2022/09/30 06:01:49;;;;;;;6.57;2.30;;;10.00;99.90;;;;;;6117262;29;20284;-67
2022/09/30 06:04:54;;;;;;;2.30;2.08;;;9.90;99.90;;;;;;6116735;29;20308;-68
2022/09/30 06:07:59;;;;;;;2.10;2.10;;;9.90;99.90;;;;;;6116460;28;20296;-68
2022/09/30 06:11:11;;;;;;;2.13;1.90;;;9.90;99.90;;;;;;6104816;29;20269;-68
2022/09/30 06:14:19;;;;;;;1.95;1.90;;;10.00;99.90;;;;;;6093362;29;20304;-67
2022/09/30 06:17:24;;;;;;;2.33;2.13;;;10.00;99.90;;;;;;6093189;29;20304;-66
2022/09/30 06:20:31;;;;;;;2.20;2.13;;;10.00;99.90;;;;;;6093865;29;20276;-68
2022/09/30 06:23:36;;;;;;;2.17;2.08;;;10.10;99.90;;;;;;6093234;29;20305;-68
2022/09/30 06:26:42;;;;;;;2.00;2.00;;;10.00;99.90;;;;;;6093681;29;20280;-68
2022/09/30 06:29:48;;;;;;;2.35;2.25;;;10.00;99.90;;;;;;6093204;29;20584;-68
2022/09/30 06:32:57;;;;;;;2.60;2.40;;;10.10;99.90;;;;;;6093135;29;20300;-67
2022/09/30 06:36:03;;;;;;;2.38;2.20;;;10.00;99.90;;;;;;6093747;29;20272;-67
2022/09/30 06:39:08;;;;;;;2.40;2.30;;;10.00;99.90;;;;;;6092944;29;20453;-67
2022/09/30 06:42:18;;;;;;;3.92;2.05;;;9.90;99.90;;;;;;6092636;29;20296;-67
2022/09/30 06:45:24;;;;;;;2.10;2.00;;;9.90;99.90;;;;;;6093318;29;20277;-66
2022/09/30 06:48:36;;;;;;;3.15;2.03;;;10.00;99.90;;;;;;6092737;29;20304;-66
2022/09/30 06:51:42;;;;;;;2.20;2.10;;;10.10;99.90;;;;;;6093483;29;20276;-67
2022/09/30 06:54:48;;;;;;;2.00;2.00;;;10.00;99.90;;;;;;6092557;29;20496;-67
2022/09/30 06:57:54;;;;;;;6.53;3.08;;;10.00;99.90;;;;;;6092989;29;20300;-67
2022/09/30 07:01:02;;;;;;;2.25;1.98;;;10.10;99.90;;;;;;6098126;29;20276;-66
2022/09/30 07:04:09;;;;;;;2.40;2.30;;;10.00;99.90;;;;;;6097236;29;20296;-67
2022/09/30 07:07:14;;;;;;;2.55;2.42;;;10.00;99.90;;;;;;6096834;29;20308;-66
2022/09/30 07:10:19;;;;;;;2.78;2.45;;;10.10;99.90;;;;;;6104142;29;20268;-66
2022/09/30 07:13:25;;;;;;;2.13;2.13;;;10.20;99.90;;;;;;6120785;29;20299;-66
2022/09/30 07:16:32;;;;;;;2.40;2.20;;;10.30;99.90;;;;;;6120845;29;20275;-66
2022/09/30 07:19:38;;;;;;;4.43;3.63;;;10.30;99.90;;;;;;6120940;29;20315;-67
2022/09/30 07:22:42;;;;;;;3.05;2.63;;;10.30;99.90;;;;;;6120536;29;20296;-67
2022/09/30 07:25:53;;;;;;;3.58;2.15;;;10.40;99.90;;;;;;6120913;29;20275;-66
2022/09/30 07:28:59;;;;;;;2.30;2.30;;;10.30;99.90;;;;;;6120538;29;20295;-68
2022/09/30 07:32:06;;;;;;;2.95;2.55;;;10.40;99.90;;;;;;6120251;29;20276;-68
2022/09/30 07:35:14;;;;;;;3.65;2.70;;;10.50;99.90;;;;;;6120727;29;20276;-68
2022/09/30 07:38:21;;;;;;;2.97;2.83;;;10.60;99.90;;;;;;6120207;28;20304;-67
2022/09/30 07:41:28;;;;;;;5.45;2.70;;;10.60;99.90;;;;;;6120790;29;20268;-67
2022/09/30 07:44:33;;;;;;;2.40;2.20;;;10.60;99.90;;;;;;6120457;29;20299;-68
2022/09/30 07:47:39;;;;;;;2.78;2.50;;;10.70;99.90;;;;;;6119871;29;20323;-68
2022/09/30 07:50:44;;;;;;;3.83;2.40;;;10.70;99.90;;;;;;6120334;29;20276;-67
2022/09/30 07:53:52;;;;;;;2.90;2.80;;;10.80;99.90;;;;;;6119951;29;20295;-67
2022/09/30 07:56:58;;;;;;;3.30;3.20;;;10.80;99.90;;;;;;6119583;29;20275;-67
2022/09/30 08:00:18;;;;;;;4.50;2.78;;;10.80;99.90;;;;;;6120612;29;20576;-67
2022/09/30 08:03:44;;;;;;;2.63;2.40;;;10.90;99.90;;;;;;6119808;29;20299;-66
2022/09/30 08:06:54;;;;;;;2.72;2.50;;;10.90;99.90;;;;;;6120145;29;20300;-67
2022/09/30 08:09:59;;;;;;;2.13;2.13;;;10.90;99.90;;;;;;6112860;29;20280;-67
2022/09/30 08:13:04;;;;;;;2.20;2.00;;;11.00;99.90;;;;;;6096231;29;20296;-67
2022/09/30 08:16:11;;;;;;;2.60;2.40;;;11.10;99.90;;;;;;6096189;29;20277;-67
2022/09/30 08:19:19;;;;;;;2.50;2.50;;;11.10;99.90;;;;;;6096034;29;20296;-66
2022/09/30 08:22:24;;;;;;;2.58;2.58;;;11.10;99.90;;;;;;6095893;29;20495;-67
2022/09/30 08:25:29;;;;;;;4.32;2.10;;;11.20;99.90;;;;;;6096261;29;20272;-66
2022/09/30 08:28:34;;;;;;;2.13;2.13;;;11.10;99.90;;;;;;6095534;29;20296;-68
2022/09/30 08:31:39;;;;;;;2.33;2.22;;;11.10;99.90;;;;;;6095959;29;20411;-67
2022/09/30 08:34:46;;;;;;;4.00;2.17;;;11.20;99.90;;;;;;6094855;29;20301;-68
2022/09/30 08:37:51;;;;;;;2.42;2.42;;;11.20;99.90;;;;;;6095043;29;20325;-67
2022/09/30 08:41:10;;;;;;;2.25;2.20;;;11.20;99.90;;;;;;6094727;29;20276;-66
2022/09/30 08:44:35;;;;;;;2.33;2.13;;;11.20;99.90;;;;;;6095402;29;20301;-66
2022/09/30 08:47:47;;;;;;;2.33;2.22;;;11.30;99.90;;;;;;6095160;29;20300;-67
2022/09/30 08:51:04;;;;;;;2.33;1.90;;;11.40;99.90;;;;;;6095745;29;20560;-67
2022/09/30 08:54:14;;;;;;;2.72;1.95;;;11.50;99.90;;;;;;6095329;29;20312;-67
2022/09/30 08:57:19;;;;;;;3.50;1.90;;;11.50;99.90;;;;;;6094943;29;20296;-67
2022/09/30 09:00:24;;;;;;;2.55;2.45;;;11.50;99.90;;;;;;6094964;29;20296;-67
2022/09/30 09:03:32;;;;;;;2.00;1.90;;;11.50;99.90;;;;;;6095016;29;20449;-67
2022/09/30 09:06:45;;;;;;;2.03;2.03;;;11.50;99.90;;;;;;6095316;29;20300;-67
2022/09/30 09:10:00;;;;;;;3.03;2.20;;;11.70;99.90;;;;;;6097818;29;20303;-68
2022/09/30 09:13:17;;;;;;;2.25;2.15;;;11.70;99.90;;;;;;6118136;29;20292;-68
2022/09/30 09:16:27;;;;;;;2.08;2.03;;;11.80;99.90;;;;;;6118523;29;20272;-68
2022/09/30 09:19:38;;;;;;;2.33;2.33;;;11.80;99.90;;;;;;6118130;28;20320;-67
2022/09/30 09:22:45;;;;;;;2.63;2.38;;;11.80;99.90;;;;;;6117355;29;20595;-68
2022/09/30 09:25:51;;;;;;;3.67;3.33;;;11.70;99.90;;;;;;6118417;29;20280;-68
2022/09/30 09:29:16;;;;;;;5.50;2.30;;;11.80;99.90;;;;;;6117612;29;20299;-68
2022/09/30 09:32:21;;;;;;;2.20;2.10;;;11.80;99.90;;;;;;6117842;29;20300;-67
2022/09/30 09:35:36;;;;;;;2.00;2.00;;;11.70;99.90;;;;;;6117766;29;20454;-68
2022/09/30 09:39:03;;;;;;;2.15;2.05;;;11.70;99.90;;;;;;6117550;28;20303;-68
2022/09/30 09:42:35;;;;;;;2.30;2.20;;;11.70;99.90;;;;;;6117217;29;20272;-68
2022/09/30 09:45:49;;;;;;;4.97;2.13;;;11.80;99.90;;;;;;6117589;29;20464;-68
2022/09/30 09:49:33;;;;;;;2.30;2.17;;;11.90;99.90;;;;;;6117148;29;20330;-66
2022/09/30 09:52:51;;;;;;;2.20;2.10;;;12.00;99.90;;;;;;6117158;29;20348;-67
2022/09/30 09:55:58;;;;;;;2.25;2.15;;;11.90;99.90;;;;;;6117457;29;20275;-66
2022/09/30 09:59:21;;;;;;;2.25;2.25;;;11.90;99.90;;;;;;6117262;29;20332;-66
2022/09/30 10:02:28;;;;;;;2.47;2.13;;;12.10;99.90;;;;;;6117007;29;20292;-66
2022/09/30 10:05:38;;;;;;;2.28;2.17;;;12.00;99.90;;;;;;6117033;29;20300;-67
2022/09/30 10:08:55;;;;;;;2.13;2.13;;;12.00;99.90;;;;;;6117090;28;20478;-66
2022/09/30 10:12:28;;;;;;;1.90;1.90;;;12.00;99.90;;;;;;6096995;29;20269;-67
2022/09/30 10:15:36;;;;;;;3.80;3.50;;;12.20;99.90;;;;;;6093382;29;20273;-67
2022/09/30 10:18:41;;;;;;;3.38;3.10;;;12.20;99.90;;;;;;6093110;29;20304;-67
2022/09/30 10:21:47;;;;;;;3.40;2.50;;;12.30;99.90;;;;;;6093348;29;20581;-67
2022/09/30 10:24:51;;;;;;;2.95;2.65;;;12.40;99.90;;;;;;6093187;29;20301;-67
2022/09/30 10:28:01;;;;;;;2.10;2.00;;;12.40;99.90;;;;;;6093080;29;20308;-67
2022/09/30 10:31:08;;;;;;;2.20;2.10;;;12.50;99.90;;;;;;6093535;29;20272;-66
2022/09/30 10:34:22;;;;;;;2.35;2.28;;;12.40;99.90;;;;;;6092513;29;20296;-67
2022/09/30 10:37:27;;;;;;;4.82;2.70;;;12.40;99.90;;;;;;6092922;29;20595;-66
2022/09/30 10:40:31;;;;;;;2.10;2.10;;;12.40;99.90;;;;;;6093261;29;20292;-67
2022/09/30 10:43:44;;;;;;;2.45;1.90;;;12.50;99.90;;;;;;6093186;29;20300;-67
2022/09/30 10:46:52;;;;;;;1.70;1.70;;;12.60;99.90;;;;;;6093091;29;20276;-67
2022/09/30 10:50:03;;;;;;;7.53;1.75;;;12.60;99.90;;;;;;6092483;29;20281;-66
2022/09/30 10:53:19;;;;;;;2.83;2.20;;;12.60;99.90;;;;;;6093057;29;20308;-67
2022/09/30 10:56:46;;;;;;;1.60;1.60;;;12.70;99.90;;;;;;6091945;29;20476;-66
2022/09/30 10:59:57;;;;;;;1.73;1.63;;;12.70;99.90;;;;;;6092685;29;20309;-67
2022/09/30 11:03:07;;;;;;;1.70;1.70;;;12.70;99.90;;;;;;6092704;29;20292;-66
2022/09/30 11:06:15;;;;;;;2.95;1.65;;;12.70;99.90;;;;;;6093378;29;20312;-67
2022/09/30 11:09:27;;;;;;;1.60;1.60;;;12.70;99.90;;;;;;6092935;29;20304;-67
2022/09/30 11:12:39;;;;;;;2.15;1.63;;;12.80;99.90;;;;;;6069708;29;20301;-67
2022/09/30 11:15:56;;;;;;;2.38;2.00;;;12.80;99.90;;;;;;6070424;29;20281;-67
2022/09/30 11:19:07;;;;;;;2.38;2.17;;;12.80;99.90;;;;;;6069856;29;20321;-67
2022/09/30 11:22:36;;;;;;;4.22;2.03;;;12.70;99.90;;;;;;6069733;29;20308;-67
2022/09/30 11:25:46;;;;;;;1.60;1.60;;;12.80;99.90;;;;;;6070278;29;20269;-67
2022/09/30 11:29:09;;;;;;;2.13;1.83;;;12.80;99.90;;;;;;6069757;29;20301;-67
2022/09/30 11:32:30;;;;;;;4.88;1.60;;;12.80;99.90;;;;;;6069744;29;20301;-66
2022/09/30 11:35:49;;;;;;;3.05;1.80;;;12.80;99.90;;;;;;6069770;29;20277;-66
2022/09/30 11:39:24;;;;;;;1.40;1.40;;;12.90;99.90;;;;;;6069779;29;20453;-67
2022/09/30 11:42:35;;;;;;;1.55;1.55;;;13.00;99.90;;;;;;6069661;29;20297;-66
2022/09/30 11:46:09;;;;;;;1.75;1.75;;;13.00;99.90;;;;;;6072350;29;20273;-67
2022/09/30 11:49:36;;;;;;;1.65;1.65;;;13.00;99.90;;;;;;6073892;29;20304;-67
2022/09/30 11:52:51;;;;;;;1.73;1.73;;;12.90;99.90;;;;;;6073560;29;20584;-68
2022/09/30 11:56:10;;;;;;;1.60;1.60;;;13.00;99.90;;;;;;6074170;29;20273;-68
2022/09/30 11:59:22;;;;;;;1.38;1.38;;;13.00;99.90;;;;;;6073549;29;20297;-67
2022/09/30 12:02:31;;;;;;;2.60;2.05;;;13.00;99.90;;;;;;6073716;29;20296;-67
2022/09/30 12:05:41;;;;;;;2.40;2.30;;;13.10;99.90;;;;;;6073937;29;20304;-68
2022/09/30 12:08:49;;;;;;;2.00;2.00;;;13.10;99.90;;;;;;6073262;29;20304;-67
2022/09/30 12:11:59;;;;;;;2.17;1.50;;;13.10;99.90;;;;;;6111371;29;20267;-66
2022/09/30 12:15:06;;;;;;;2.05;1.95;;;13.10;99.90;;;;;;6119821;29;20452;-66
2022/09/30 12:18:20;;;;;;;1.50;1.50;;;13.10;99.90;;;;;;6119715;29;20303;-66
2022/09/30 12:21:33;;;;;;;1.42;1.42;;;13.10;99.90;;;;;;6120043;29;20295;-66
2022/09/30 12:24:39;;;;;;;1.58;1.58;;;13.10;99.90;;;;;;6119334;28;20300;-67
2022/09/30 12:27:48;;;;;;;1.63;1.45;;;13.10;99.90;;;;;;6119101;29;20557;-66
2022/09/30 12:31:01;;;;;;;2.15;1.60;;;13.10;99.90;;;;;;6119946;29;20271;-66
2022/09/30 12:34:22;;;;;;;1.60;1.60;;;13.10;99.90;;;;;;6119384;29;20304;-67
2022/09/30 12:37:56;;;;;;;1.63;1.52;;;13.10;99.90;;;;;;6119009;29;20300;-67
2022/09/30 12:41:20;;;;;;;1.50;1.50;;;13.20;99.90;;;;;;6119398;29;20295;-67
2022/09/30 12:44:50;;;;;;;1.40;1.38;;;13.20;99.90;;;;;;6119283;29;20316;-67
2022/09/30 12:47:56;;;;;;;1.42;1.42;;;13.20;99.90;;;;;;6118891;29;20299;-67
2022/09/30 12:51:01;;;;;;;1.50;1.50;;;13.20;99.90;;;;;;6119396;29;20276;-67
2022/09/30 12:54:16;;;;;;;2.22;1.60;;;13.20;99.90;;;;;;6118910;28;20312;-67
2022/09/30 12:57:26;;;;;;;1.50;1.50;;;13.20;99.90;;;;;;6118124;29;20304;-67
2022/09/30 13:00:36;;;;;;;2.10;1.73;;;13.20;99.90;;;;;;6118941;29;20296;-67
2022/09/30 13:03:50;;;;;;;1.70;1.60;;;13.20;99.90;;;;;;6118202;29;20300;-67
2022/09/30 13:07:20;;;;;;;2.13;1.98;;;13.20;99.90;;;;;;6117949;29;20300;-67
2022/09/30 13:10:29;;;;;;;1.60;1.55;;;13.30;99.90;;;;;;6111181;29;20272;-67
2022/09/30 13:13:59;;;;;;;3.45;1.60;;;13.30;99.90;;;;;;6094789;29;20300;-66
2022/09/30 13:17:28;;;;;;;6.93;1.70;;;13.30;99.90;;;;;;6094403;29;20269;-67
2022/09/30 13:21:19;;;;;;;2.17;1.60;;;13.40;99.90;;;;;;6095019;29;20473;-67
2022/09/30 13:25:11;;;;;;;1.67;1.67;;;13.40;99.90;;;;;;6085517;29;20612;-67
2022/09/30 13:28:38;;;;;;;4.28;1.60;;;13.30;99.90;;;;;;6094400;29;20466;-67
2022/09/30 13:32:06;;;;;;;3.60;1.60;;;13.30;99.90;;;;;;6095224;29;20355;-68
2022/09/30 13:35:32;;;;;;;1.63;1.63;;;13.30;99.90;;;;;;6093899;29;20276;-66
2022/09/30 13:38:40;;;;;;;1.30;1.30;;;13.40;99.90;;;;;;6092945;29;20300;-67
2022/09/30 13:41:55;;;;;;;1.50;1.50;;;13.20;99.90;;;;;;6094279;29;20411;-67
2022/09/30 13:45:06;;;;;;;1.40;1.40;;;13.30;99.90;;;;;;6093793;29;20363;-67
2022/09/30 13:48:19;;;;;;;1.60;1.50;;;13.30;99.90;;;;;;6094007;29;20304;-67
2022/09/30 13:51:26;;;;;;;1.23;1.23;;;13.20;99.90;;;;;;6094399;29;20276;-67
2022/09/30 13:54:34;;;;;;;1.50;1.50;;;13.10;99.90;;;;;;6093789;29;20311;-67
2022/09/30 13:57:51;;;;;;;1.58;1.58;;;13.10;99.90;;;;;;6093838;29;20297;-67
2022/09/30 14:01:01;;;;;;;1.67;1.60;;;13.00;99.90;;;;;;6094183;29;20292;-67
2022/09/30 14:04:36;;;;;;;1.50;1.50;;;13.10;99.90;;;;;;6093780;29;20309;-67
2022/09/30 14:07:51;;;;;;;3.22;1.55;;;13.40;99.90;;;;;;6069429;29;20483;-67
2022/09/30 14:11:11;;;;;;;1.83;1.67;;;15.60;99.90;;;;;;6082122;29;20284;-67
2022/09/30 14:14:56;;;;;;;1.65;1.40;;;15.70;98.90;;;;;;6093738;29;20305;-67
2022/09/30 14:19:01;;;;;;;1.50;1.50;;;14.80;98.70;;;;;;6093431;29;20317;-67
2022/09/30 14:22:09;;;;;;;2.00;1.48;;;14.20;99.60;;;;;;6086492;29;20292;-68
2022/09/30 14:25:17;;;;;;;1.50;1.50;;;13.80;99.90;;;;;;6093734;29;20277;-68
2022/09/30 14:28:31;;;;;;;1.63;1.45;;;13.60;99.90;;;;;;6093134;29;20588;-68
2022/09/30 14:31:44;;;;;;;1.50;1.40;;;13.40;99.90;;;;;;6093538;29;20280;-67
2022/09/30 14:34:50;;;;;;;1.80;1.70;;;13.40;99.90;;;;;;6092935;29;20300;-67
2022/09/30 14:38:00;;;;;;;1.60;1.50;;;13.20;99.90;;;;;;6093034;29;20292;-68
2022/09/30 14:41:07;;;;;;;1.77;1.77;;;13.10;99.90;;;;;;6093355;29;20269;-68
2022/09/30 14:44:16;;;;;;;1.80;1.63;;;13.10;99.90;;;;;;6093016;29;20597;-69
2022/09/30 14:47:22;;;;;;;1.73;1.60;;;13.00;99.90;;;;;;6092896;29;20300;-66
2022/09/30 14:50:31;;;;;;;1.90;1.80;;;13.00;99.90;;;;;;6092718;29;20277;-67
2022/09/30 14:53:40;;;;;;;5.20;5.00;;;13.00;99.90;;;;;;6092610;29;20364;-66
2022/09/30 14:56:45;;;;;;;3.25;3.05;;;13.00;99.90;;;;;;6093240;29;20273;-67
2022/09/30 14:59:49;;;;;;;2.92;2.83;;;12.90;99.90;;;;;;6091260;29;20628;-67
2022/09/30 15:02:55;;;;;;;1.90;1.90;;;12.80;99.90;;;;;;6092622;29;20296;-68
2022/09/30 15:06:01;;;;;;;2.50;2.33;;;12.80;99.90;;;;;;6105392;29;20303;-68
2022/09/30 15:09:16;;;;;;;3.40;2.13;;;12.80;99.90;;;;;;6116287;29;20292;-68
2022/09/30 15:12:24;;;;;;;1.90;1.90;;;12.70;99.90;;;;;;6093349;29;20313;-68
2022/09/30 15:15:37;;;;;;;2.03;1.92;;;12.70;99.90;;;;;;6093165;29;20269;-67
2022/09/30 15:18:45;;;;;;;2.10;2.00;;;12.70;99.90;;;;;;6092321;29;20316;-67
2022/09/30 15:21:53;;;;;;;1.90;1.77;;;12.60;99.90;;;;;;6097495;29;20293;-67
2022/09/30 15:25:00;;;;;;;2.28;1.80;;;12.60;99.90;;;;;;6096594;29;20285;-66
2022/09/30 15:28:09;;;;;;;3.90;2.08;;;12.50;99.90;;;;;;6097002;29;20304;-68
2022/09/30 15:31:22;;;;;;;2.00;1.90;;;12.50;99.90;;;;;;6097598;29;20272;-68
2022/09/30 15:34:29;;;;;;;1.88;1.77;;;12.40;99.90;;;;;;6096818;29;20296;-68
2022/09/30 15:37:34;;;;;;;1.70;1.58;;;12.30;99.90;;;;;;6096455;29;20296;-69
2022/09/30 15:40:48;;;;;;;2.38;1.58;;;12.30;99.90;;;;;;6097371;29;20277;-69
2022/09/30 15:43:54;;;;;;;1.65;1.65;;;12.30;99.90;;;;;;6096445;29;20312;-69
2022/09/30 15:47:04;;;;;;;3.53;1.70;;;12.30;99.90;;;;;;6096580;29;20465;-68
2022/09/30 15:50:37;;;;;;;1.67;1.65;;;12.30;99.90;;;;;;6097013;29;20273;-67
2022/09/30 15:53:48;;;;;;;2.58;1.70;;;12.20;99.90;;;;;;6096400;29;20331;-67
2022/09/30 15:56:55;;;;;;;3.03;1.83;;;12.20;99.90;;;;;;6096751;29;20276;-68
2022/09/30 16:00:06;;;;;;;4.90;1.60;;;12.20;99.90;;;;;;6096710;29;20529;-67
2022/09/30 16:03:26;;;;;;;2.28;1.90;;;12.10;99.90;;;;;;6096218;29;20304;-68
2022/09/30 16:06:34;;;;;;;2.63;1.90;;;12.10;99.90;;;;;;6096632;29;20388;-67
2022/09/30 16:09:41;;;;;;;2.75;1.88;;;12.00;99.90;;;;;;6097350;29;20483;-68
2022/09/30 16:12:48;;;;;;;2.22;2.13;;;12.00;99.90;;;;;;6119489;29;20307;-67
2022/09/30 16:15:53;;;;;;;2.80;2.60;;;11.90;99.90;;;;;;6120142;29;20575;-66
2022/09/30 16:19:00;;;;;;;2.40;2.25;;;11.90;99.90;;;;;;6119577;29;20295;-67
2022/09/30 16:22:05;;;;;;;2.67;2.25;;;11.80;99.90;;;;;;6119303;29;20272;-67
2022/09/30 16:25:17;;;;;;;4.15;2.58;;;11.70;99.90;;;;;;6119816;29;20272;-67
2022/09/30 16:28:24;;;;;;;1.98;1.95;;;11.70;99.90;;;;;;6119234;28;20517;-67
2022/09/30 16:31:49;;;;;;;3.22;1.77;;;11.60;99.90;;;;;;6118836;29;20302;-67
2022/09/30 16:34:54;;;;;;;1.77;1.77;;;11.60;99.90;;;;;;6118888;29;20268;-67
2022/09/30 16:38:02;;;;;;;7.90;2.10;;;11.50;99.90;;;;;;6119102;28;20300;-67
2022/09/30 16:41:10;;;;;;;2.10;2.00;;;11.50;99.90;;;;;;6119598;29;20272;-68